sensor_id;sensor_type;location;lat;lon;timestamp;pressure;altitude;pressure_sealevel;temperature;humidity
20015;BME280;61787;42.022;23.078;2023-07-20T00:00:58;96355.06;;;26.21;52.37
20015;BME280;61787;42.022;23.078;2023-07-20T00:02:17;96355.59;;;26.28;51.96
20015;BME280;61787;42.022;23.078;2023-07-20T00:03:20;96354.88;;;26.37;52.12
20015;BME280;61787;42.022;23.078;2023-07-20T00:04:24;96354.56;;;26.35;51.64
20015;BME280;61787;42.022;23.078;2023-07-20T00:05:26;96355.97;;;26.40;51.58
20015;BME280;61787;42.022;23.078;2023-07-20T00:06:28;96352.66;;;26.45;51.49
20015;BME280;61787;42.022;23.078;2023-07-20T00:07:29;96351.88;;;26.44;52.02
20015;BME280;61787;42.022;23.078;2023-07-20T00:08:31;96354.44;;;26.39;51.97
20015;BME280;61787;42.022;23.078;2023-07-20T00:09:32;96346.97;;;26.39;51.59
20015;BME280;61787;42.022;23.078;2023-07-20T00:10:34;96347.28;;;26.41;51.56
20015;BME280;61787;42.022;23.078;2023-07-20T00:11:37;96347.53;;;26.34;51.60
20015;BME280;61787;42.022;23.078;2023-07-20T00:12:41;96345.94;;;26.24;51.84
20015;BME280;61787;42.022;23.078;2023-07-20T00:13:49;96338.56;;;26.21;52.62
20015;BME280;61787;42.022;23.078;2023-07-20T00:14:50;96341.31;;;26.21;52.62
20015;BME280;61787;42.022;23.078;2023-07-20T00:15:55;96337.03;;;26.20;52.63
20015;BME280;61787;42.022;23.078;2023-07-20T00:16:56;96340.97;;;26.19;52.60
20015;BME280;61787;42.022;23.078;2023-07-20T00:17:58;96327.69;;;26.17;52.39
20015;BME280;61787;42.022;23.078;2023-07-20T00:19:00;96335.28;;;26.26;52.46
20015;BME280;61787;42.022;23.078;2023-07-20T00:20:02;96331.66;;;26.38;52.27
20015;BME280;61787;42.022;23.078;2023-07-20T00:21:06;96330.66;;;26.45;51.85
20015;BME280;61787;42.022;23.078;2023-07-20T00:22:08;96336.53;;;26.56;51.31
20015;BME280;61787;42.022;23.078;2023-07-20T00:23:10;96339.16;;;26.59;51.22
20015;BME280;61787;42.022;23.078;2023-07-20T00:24:12;96340.63;;;26.51;51.25
20015;BME280;61787;42.022;23.078;2023-07-20T00:25:14;96337.50;;;26.40;51.52
20015;BME280;61787;42.022;23.078;2023-07-20T00:26:16;96338.81;;;26.14;52.48
20015;BME280;61787;42.022;23.078;2023-07-20T00:27:17;96332.19;;;25.89;52.44
20015;BME280;61787;42.022;23.078;2023-07-20T00:28:20;96340.03;;;25.78;53.18
20015;BME280;61787;42.022;23.078;2023-07-20T00:29:21;96342.44;;;25.76;52.98
20015;BME280;61787;42.022;23.078;2023-07-20T00:30:23;96343.34;;;25.73;53.31
20015;BME280;61787;42.022;23.078;2023-07-20T00:31:25;96354.91;;;25.68;53.06
20015;BME280;61787;42.022;23.078;2023-07-20T00:32:27;96348.19;;;25.69;53.20
20015;BME280;61787;42.022;23.078;2023-07-20T00:33:28;96343.34;;;25.73;53.21
20015;BME280;61787;42.022;23.078;2023-07-20T00:34:30;96341.44;;;25.83;53.32
20015;BME280;61787;42.022;23.078;2023-07-20T00:35:32;96336.72;;;25.83;53.22
20015;BME280;61787;42.022;23.078;2023-07-20T00:36:34;96336.94;;;25.76;53.38
20015;BME280;61787;42.022;23.078;2023-07-20T00:37:36;96338.53;;;25.65;54.17
20015;BME280;61787;42.022;23.078;2023-07-20T00:38:38;96338.09;;;25.54;54.42
20015;BME280;61787;42.022;23.078;2023-07-20T00:39:40;96337.00;;;25.51;54.74
20015;BME280;61787;42.022;23.078;2023-07-20T00:40:42;96340.16;;;25.49;54.29
20015;BME280;61787;42.022;23.078;2023-07-20T00:41:43;96332.63;;;25.41;54.33
20015;BME280;61787;42.022;23.078;2023-07-20T00:42:45;96344.38;;;25.41;54.34
20015;BME280;61787;42.022;23.078;2023-07-20T00:43:47;96342.72;;;25.44;54.43
20015;BME280;61787;42.022;23.078;2023-07-20T00:44:48;96333.38;;;25.41;54.33
20015;BME280;61787;42.022;23.078;2023-07-20T00:45:50;96332.41;;;25.35;54.37
20015;BME280;61787;42.022;23.078;2023-07-20T00:46:52;96333.06;;;25.27;54.77
20015;BME280;61787;42.022;23.078;2023-07-20T00:47:54;96329.13;;;25.28;55.21
20015;BME280;61787;42.022;23.078;2023-07-20T00:48:56;96331.84;;;25.40;54.38
20015;BME280;61787;42.022;23.078;2023-07-20T00:49:58;96330.84;;;25.47;54.38
20015;BME280;61787;42.022;23.078;2023-07-20T00:51:00;96324.81;;;25.52;54.46
20015;BME280;61787;42.022;23.078;2023-07-20T00:52:03;96321.72;;;25.63;53.85
20015;BME280;61787;42.022;23.078;2023-07-20T00:53:08;96317.66;;;25.67;54.07
20015;BME280;61787;42.022;23.078;2023-07-20T00:54:10;96321.69;;;25.75;53.70
20015;BME280;61787;42.022;23.078;2023-07-20T00:55:12;96318.63;;;25.73;53.50
20015;BME280;61787;42.022;23.078;2023-07-20T00:56:14;96321.38;;;25.61;54.02
20015;BME280;61787;42.022;23.078;2023-07-20T00:57:17;96316.47;;;25.43;55.04
20015;BME280;61787;42.022;23.078;2023-07-20T00:58:20;96313.66;;;25.34;54.82
20015;BME280;61787;42.022;23.078;2023-07-20T00:59:22;96316.28;;;25.25;55.32
20015;BME280;61787;42.022;23.078;2023-07-20T01:00:23;96323.84;;;25.21;55.34
20015;BME280;61787;42.022;23.078;2023-07-20T01:01:25;96325.59;;;25.15;55.89
20015;BME280;61787;42.022;23.078;2023-07-20T01:02:26;96322.22;;;25.23;55.28
20015;BME280;61787;42.022;23.078;2023-07-20T01:03:28;96322.09;;;25.27;54.92
20015;BME280;61787;42.022;23.078;2023-07-20T01:04:30;96335.25;;;25.32;54.88
20015;BME280;61787;42.022;23.078;2023-07-20T01:05:51;96324.06;;;25.39;54.83
20015;BME280;61787;42.022;23.078;2023-07-20T01:07:15;96327.00;;;25.44;54.58
20015;BME280;61787;42.022;23.078;2023-07-20T01:08:32;96330.72;;;25.51;54.92
20015;BME280;61787;42.022;23.078;2023-07-20T01:09:48;96320.63;;;25.60;54.67
20015;BME280;61787;42.022;23.078;2023-07-20T01:11:10;96311.41;;;25.54;54.73
20015;BME280;61787;42.022;23.078;2023-07-20T01:12:30;96320.50;;;25.51;54.88
20015;BME280;61787;42.022;23.078;2023-07-20T01:13:32;96322.63;;;25.47;54.96
20015;BME280;61787;42.022;23.078;2023-07-20T01:14:34;96325.91;;;25.42;54.80
20015;BME280;61787;42.022;23.078;2023-07-20T01:15:36;96325.19;;;25.29;55.29
20015;BME280;61787;42.022;23.078;2023-07-20T01:16:38;96332.84;;;25.09;55.45
20015;BME280;61787;42.022;23.078;2023-07-20T01:17:39;96327.16;;;24.90;55.93
20015;BME280;61787;42.022;23.078;2023-07-20T01:18:41;96338.66;;;24.85;56.54
20015;BME280;61787;42.022;23.078;2023-07-20T01:19:43;96330.78;;;24.87;56.40
20015;BME280;61787;42.022;23.078;2023-07-20T01:20:44;96328.69;;;24.91;56.28
20015;BME280;61787;42.022;23.078;2023-07-20T01:22:00;96330.66;;;25.03;56.12
20015;BME280;61787;42.022;23.078;2023-07-20T01:23:22;96321.78;;;25.12;56.25
20015;BME280;61787;42.022;23.078;2023-07-20T01:31:54;96330.66;;;25.29;55.32
20015;BME280;61787;42.022;23.078;2023-07-20T01:32:57;96326.94;;;25.23;55.31
20015;BME280;61787;42.022;23.078;2023-07-20T01:34:01;96329.13;;;25.28;55.07
20015;BME280;61787;42.022;23.078;2023-07-20T01:35:04;96325.81;;;25.33;55.71
20015;BME280;61787;42.022;23.078;2023-07-20T01:36:07;96314.94;;;25.29;55.70
20015;BME280;61787;42.022;23.078;2023-07-20T01:37:10;96324.50;;;25.25;55.85
20015;BME280;61787;42.022;23.078;2023-07-20T01:38:13;96312.66;;;25.28;55.73
20015;BME280;61787;42.022;23.078;2023-07-20T01:39:16;96319.56;;;25.32;55.85
20015;BME280;61787;42.022;23.078;2023-07-20T01:40:20;96316.25;;;25.37;55.58
20015;BME280;61787;42.022;23.078;2023-07-20T01:41:23;96307.59;;;25.39;56.05
20015;BME280;61787;42.022;23.078;2023-07-20T01:42:25;96306.28;;;25.31;56.00
20015;BME280;61787;42.022;23.078;2023-07-20T01:43:27;96315.31;;;25.19;56.23
20015;BME280;61787;42.022;23.078;2023-07-20T01:44:29;96314.31;;;25.13;57.75
20015;BME280;61787;42.022;23.078;2023-07-20T01:45:31;96316.59;;;25.14;57.85
20015;BME280;61787;42.022;23.078;2023-07-20T01:46:32;96318.47;;;25.17;58.07
20015;BME280;61787;42.022;23.078;2023-07-20T01:47:34;96316.16;;;25.16;58.18
20015;BME280;61787;42.022;23.078;2023-07-20T01:48:36;96322.66;;;25.22;58.21
20015;BME280;61787;42.022;23.078;2023-07-20T01:49:37;96305.97;;;25.29;58.42
20015;BME280;61787;42.022;23.078;2023-07-20T01:50:39;96310.91;;;25.34;58.33
20015;BME280;61787;42.022;23.078;2023-07-20T01:51:40;96314.59;;;25.40;58.03
20015;BME280;61787;42.022;23.078;2023-07-20T01:52:42;96316.47;;;25.43;57.89
20015;BME280;61787;42.022;23.078;2023-07-20T01:53:44;96311.97;;;25.49;57.80
20015;BME280;61787;42.022;23.078;2023-07-20T01:54:45;96310.28;;;25.52;58.03
20015;BME280;61787;42.022;23.078;2023-07-20T01:55:47;96320.31;;;25.45;57.06
20015;BME280;61787;42.022;23.078;2023-07-20T01:56:48;96319.34;;;25.27;57.61
20015;BME280;61787;42.022;23.078;2023-07-20T01:57:50;96318.06;;;25.19;57.68
20015;BME280;61787;42.022;23.078;2023-07-20T01:58:52;96315.41;;;25.15;57.67
20015;BME280;61787;42.022;23.078;2023-07-20T01:59:54;96311.25;;;25.23;57.49
20015;BME280;61787;42.022;23.078;2023-07-20T02:00:55;96316.16;;;25.28;57.21
20015;BME280;61787;42.022;23.078;2023-07-20T02:01:57;96324.94;;;25.36;57.09
20015;BME280;61787;42.022;23.078;2023-07-20T02:02:59;96311.41;;;25.41;57.02
20015;BME280;61787;42.022;23.078;2023-07-20T02:04:01;96314.72;;;25.49;56.65
20015;BME280;61787;42.022;23.078;2023-07-20T02:05:02;96321.84;;;25.59;56.49
20015;BME280;61787;42.022;23.078;2023-07-20T02:06:04;96325.56;;;25.65;56.13
20015;BME280;61787;42.022;23.078;2023-07-20T02:07:06;96319.19;;;25.68;56.44
20015;BME280;61787;42.022;23.078;2023-07-20T02:08:07;96321.50;;;25.70;56.13
20015;BME280;61787;42.022;23.078;2023-07-20T02:09:09;96312.94;;;25.68;56.67
20015;BME280;61787;42.022;23.078;2023-07-20T02:10:11;96317.00;;;25.63;56.08
20015;BME280;61787;42.022;23.078;2023-07-20T02:11:12;96301.84;;;25.46;56.64
20015;BME280;61787;42.022;23.078;2023-07-20T02:12:14;96309.44;;;25.42;56.81
20015;BME280;61787;42.022;23.078;2023-07-20T02:13:16;96313.66;;;25.34;57.11
20015;BME280;61787;42.022;23.078;2023-07-20T02:14:17;96322.09;;;25.27;57.37
20015;BME280;61787;42.022;23.078;2023-07-20T02:15:19;96322.09;;;25.27;57.64
20015;BME280;61787;42.022;23.078;2023-07-20T02:16:21;96318.38;;;25.21;57.77
20015;BME280;61787;42.022;23.078;2023-07-20T02:17:23;96317.72;;;25.17;58.28
20015;BME280;61787;42.022;23.078;2023-07-20T02:18:25;96315.53;;;25.12;58.74
20015;BME280;61787;42.022;23.078;2023-07-20T02:19:26;96316.50;;;25.18;59.14
20015;BME280;61787;42.022;23.078;2023-07-20T02:20:28;96316.59;;;25.27;58.34
20015;BME280;61787;42.022;23.078;2023-07-20T02:21:30;96311.53;;;25.38;57.90
20015;BME280;61787;42.022;23.078;2023-07-20T02:22:32;96317.47;;;25.49;58.22
20015;BME280;61787;42.022;23.078;2023-07-20T02:23:33;96319.09;;;25.59;57.43
20015;BME280;61787;42.022;23.078;2023-07-20T02:24:36;96325.44;;;25.69;57.13
20015;BME280;61787;42.022;23.078;2023-07-20T02:25:37;96324.44;;;25.75;56.75
20015;BME280;61787;42.022;23.078;2023-07-20T02:26:39;96320.38;;;25.80;56.78
20015;BME280;61787;42.022;23.078;2023-07-20T02:27:41;96321.13;;;25.80;56.64
20015;BME280;61787;42.022;23.078;2023-07-20T02:28:42;96331.22;;;25.83;56.81
20015;BME280;61787;42.022;23.078;2023-07-20T02:29:44;96313.06;;;25.86;56.83
20015;BME280;61787;42.022;23.078;2023-07-20T02:30:46;96316.16;;;25.88;56.87
20015;BME280;61787;42.022;23.078;2023-07-20T02:31:47;96323.63;;;25.87;56.69
20015;BME280;61787;42.022;23.078;2023-07-20T02:32:49;96311.44;;;25.88;56.64
20015;BME280;61787;42.022;23.078;2023-07-20T02:33:51;96325.16;;;25.88;56.78
20015;BME280;61787;42.022;23.078;2023-07-20T02:34:53;96319.22;;;25.90;57.07
20015;BME280;61787;42.022;23.078;2023-07-20T02:35:54;96313.59;;;25.94;56.71
20015;BME280;61787;42.022;23.078;2023-07-20T02:36:56;96323.81;;;25.93;56.83
20015;BME280;61787;42.022;23.078;2023-07-20T02:37:59;96320.09;;;25.87;57.15
20015;BME280;61787;42.022;23.078;2023-07-20T02:39:01;96321.03;;;25.71;57.60
20015;BME280;61787;42.022;23.078;2023-07-20T02:40:06;96321.59;;;25.66;58.14
20015;BME280;61787;42.022;23.078;2023-07-20T02:41:08;96320.06;;;25.65;58.53
20015;BME280;61787;42.022;23.078;2023-07-20T02:42:10;96316.75;;;25.70;58.47
20015;BME280;61787;42.022;23.078;2023-07-20T02:43:12;96321.69;;;25.75;58.09
20015;BME280;61787;42.022;23.078;2023-07-20T02:44:14;96321.13;;;25.80;58.00
20015;BME280;61787;42.022;23.078;2023-07-20T02:45:16;96318.69;;;25.82;57.97
20015;BME280;61787;42.022;23.078;2023-07-20T02:46:18;96316.94;;;25.88;57.87
20015;BME280;61787;42.022;23.078;2023-07-20T02:47:19;96323.69;;;25.97;57.09
20015;BME280;61787;42.022;23.078;2023-07-20T02:48:21;96316.13;;;26.01;57.35
20015;BME280;61787;42.022;23.078;2023-07-20T02:49:23;96321.91;;;26.03;57.48
20015;BME280;61787;42.022;23.078;2023-07-20T02:50:24;96318.72;;;26.04;57.25
20015;BME280;61787;42.022;23.078;2023-07-20T02:51:26;96317.81;;;26.07;57.27
20015;BME280;61787;42.022;23.078;2023-07-20T02:52:27;96309.16;;;26.09;56.66
20015;BME280;61787;42.022;23.078;2023-07-20T02:53:30;96310.56;;;26.13;56.85
20015;BME280;61787;42.022;23.078;2023-07-20T02:54:32;96307.38;;;26.15;56.63
20015;BME280;61787;42.022;23.078;2023-07-20T02:55:34;96306.47;;;26.18;56.71
20015;BME280;61787;42.022;23.078;2023-07-20T02:56:35;96302.50;;;26.19;56.18
20015;BME280;61787;42.022;23.078;2023-07-20T02:57:37;96302.84;;;26.21;56.34
20015;BME280;61787;42.022;23.078;2023-07-20T02:58:40;96300.09;;;26.21;56.51
20015;BME280;61787;42.022;23.078;2023-07-20T02:59:44;96304.69;;;26.24;56.18
20015;BME280;61787;42.022;23.078;2023-07-20T03:00:46;96307.78;;;26.26;56.27
20015;BME280;61787;42.022;23.078;2023-07-20T03:01:48;96302.28;;;26.26;56.63
20015;BME280;61787;42.022;23.078;2023-07-20T03:02:50;96301.38;;;26.29;56.58
20015;BME280;61787;42.022;23.078;2023-07-20T03:03:57;96288.72;;;26.32;55.89
20015;BME280;61787;42.022;23.078;2023-07-20T03:04:59;96296.84;;;26.35;55.94
20015;BME280;61787;42.022;23.078;2023-07-20T03:06:02;96301.13;;;26.36;56.28
20015;BME280;61787;42.022;23.078;2023-07-20T03:07:04;96301.13;;;26.36;55.90
20015;BME280;61787;42.022;23.078;2023-07-20T03:08:06;96300.22;;;26.39;55.76
20015;BME280;61787;42.022;23.078;2023-07-20T03:09:08;96306.50;;;26.40;55.52
20015;BME280;61787;42.022;23.078;2023-07-20T03:10:11;96300.06;;;26.43;55.96
20015;BME280;61787;42.022;23.078;2023-07-20T03:11:13;96308.31;;;26.43;55.44
20015;BME280;61787;42.022;23.078;2023-07-20T03:12:16;96306.34;;;26.43;56.03
20015;BME280;61787;42.022;23.078;2023-07-20T03:13:18;96302.38;;;26.44;55.73
20015;BME280;61787;42.022;23.078;2023-07-20T03:14:19;96305.28;;;26.41;56.05
20015;BME280;61787;42.022;23.078;2023-07-20T03:15:21;96302.63;;;26.37;56.23
20015;BME280;61787;42.022;23.078;2023-07-20T03:16:23;96300.47;;;26.32;56.03
20015;BME280;61787;42.022;23.078;2023-07-20T03:17:26;96297.53;;;26.26;56.42
20015;BME280;61787;42.022;23.078;2023-07-20T03:18:28;96296.13;;;26.22;56.40
20015;BME280;61787;42.022;23.078;2023-07-20T03:19:30;96292.72;;;26.18;56.36
20015;BME280;61787;42.022;23.078;2023-07-20T03:20:32;96295.47;;;26.18;56.76
20015;BME280;61787;42.022;23.078;2023-07-20T03:21:33;96297.00;;;26.19;56.65
20015;BME280;61787;42.022;23.078;2023-07-20T03:22:35;96297.78;;;26.19;57.12
20015;BME280;61787;42.022;23.078;2023-07-20T03:23:38;96306.47;;;26.18;57.07
20015;BME280;61787;42.022;23.078;2023-07-20T03:24:40;96296.81;;;26.13;57.12
20015;BME280;61787;42.022;23.078;2023-07-20T03:25:42;96302.63;;;26.15;57.24
20015;BME280;61787;42.022;23.078;2023-07-20T03:26:44;96307.13;;;26.22;56.88
20015;BME280;61787;42.022;23.078;2023-07-20T03:27:45;96298.97;;;26.31;56.23
20015;BME280;61787;42.022;23.078;2023-07-20T03:28:48;96302.91;;;26.30;55.93
20015;BME280;61787;42.022;23.078;2023-07-20T03:29:50;96306.53;;;26.27;56.24
20015;BME280;61787;42.022;23.078;2023-07-20T03:30:58;96304.69;;;26.24;56.21
20015;BME280;61787;42.022;23.078;2023-07-20T03:32:00;96308.66;;;26.23;56.35
20015;BME280;61787;42.022;23.078;2023-07-20T03:33:02;96300.53;;;26.19;56.63
20015;BME280;61787;42.022;23.078;2023-07-20T03:34:04;96303.41;;;26.16;56.58
20015;BME280;61787;42.022;23.078;2023-07-20T03:35:06;96302.75;;;26.12;57.45
20015;BME280;61787;42.022;23.078;2023-07-20T03:36:08;96303.66;;;26.09;57.67
20015;BME280;61787;42.022;23.078;2023-07-20T03:37:13;96302.69;;;26.03;57.33
20015;BME280;61787;42.022;23.078;2023-07-20T03:38:15;96301.59;;;26.00;58.12
20015;BME280;61787;42.022;23.078;2023-07-20T03:39:16;96311.28;;;25.92;58.21
20015;BME280;61787;42.022;23.078;2023-07-20T03:40:18;96308.47;;;25.83;57.88
20015;BME280;61787;42.022;23.078;2023-07-20T03:41:19;96310.38;;;25.73;58.08
20015;BME280;61787;42.022;23.078;2023-07-20T03:42:23;96309.31;;;25.58;58.10
20015;BME280;61787;42.022;23.078;2023-07-20T03:43:26;96317.88;;;25.60;58.56
20015;BME280;61787;42.022;23.078;2023-07-20T03:44:28;96318.09;;;25.53;58.03
20015;BME280;61787;42.022;23.078;2023-07-20T03:45:30;96318.31;;;25.46;58.38
20015;BME280;61787;42.022;23.078;2023-07-20T03:46:32;96318.44;;;25.42;58.73
20015;BME280;61787;42.022;23.078;2023-07-20T03:47:35;96314.16;;;25.41;59.02
20015;BME280;61787;42.022;23.078;2023-07-20T03:48:37;96321.19;;;25.30;59.36
20015;BME280;61787;42.022;23.078;2023-07-20T03:49:39;96320.34;;;25.33;60.01
20015;BME280;61787;42.022;23.078;2023-07-20T03:50:40;96321.75;;;25.37;59.62
20015;BME280;61787;42.022;23.078;2023-07-20T03:51:42;96324.72;;;25.43;60.00
20015;BME280;61787;42.022;23.078;2023-07-20T03:52:44;96325.69;;;25.49;59.90
20015;BME280;61787;42.022;23.078;2023-07-20T03:53:45;96329.31;;;25.46;60.11
20015;BME280;61787;42.022;23.078;2023-07-20T03:54:47;96326.91;;;25.48;59.90
20015;BME280;61787;42.022;23.078;2023-07-20T03:55:50;96330.84;;;25.47;60.20
20015;BME280;61787;42.022;23.078;2023-07-20T03:56:52;96330.84;;;25.47;60.08
20015;BME280;61787;42.022;23.078;2023-07-20T03:57:54;96327.75;;;25.45;60.33
20015;BME280;61787;42.022;23.078;2023-07-20T03:58:55;96324.06;;;25.39;60.30
20015;BME280;61787;42.022;23.078;2023-07-20T03:59:57;96334.38;;;25.35;60.52
20015;BME280;61787;42.022;23.078;2023-07-20T04:00:59;96329.56;;;25.26;60.78
20015;BME280;61787;42.022;23.078;2023-07-20T04:02:00;96335.81;;;25.27;61.05
20015;BME280;61787;42.022;23.078;2023-07-20T04:03:02;96338.56;;;25.27;61.28
20015;BME280;61787;42.022;23.078;2023-07-20T04:04:06;96337.91;;;25.23;61.34
20015;BME280;61787;42.022;23.078;2023-07-20T04:05:09;96339.88;;;25.10;61.55
20015;BME280;61787;42.022;23.078;2023-07-20T04:06:10;96334.84;;;24.95;62.14
20015;BME280;61787;42.022;23.078;2023-07-20T04:07:12;96336.59;;;24.89;61.45
20015;BME280;61787;42.022;23.078;2023-07-20T04:08:14;96338.13;;;24.90;61.21
20015;BME280;61787;42.022;23.078;2023-07-20T04:09:15;96331.88;;;24.90;61.66
20015;BME280;61787;42.022;23.078;2023-07-20T04:10:18;96333.94;;;24.98;61.26
20015;BME280;61787;42.022;23.078;2023-07-20T04:11:19;96332.75;;;25.12;61.23
20015;BME280;61787;42.022;23.078;2023-07-20T04:12:21;96340.31;;;25.21;60.85
20015;BME280;61787;42.022;23.078;2023-07-20T04:13:23;96338.56;;;25.14;60.16
20015;BME280;61787;42.022;23.078;2023-07-20T04:14:24;96340.13;;;25.02;60.50
20015;BME280;61787;42.022;23.078;2023-07-20T04:15:26;96336.16;;;24.91;60.80
20015;BME280;61787;42.022;23.078;2023-07-20T04:16:28;96329.09;;;24.77;61.21
20015;BME280;61787;42.022;23.078;2023-07-20T04:17:30;96324.72;;;24.67;61.34
20015;BME280;61787;42.022;23.078;2023-07-20T04:18:31;96327.22;;;24.61;61.28
20015;BME280;61787;42.022;23.078;2023-07-20T04:19:33;96325.56;;;24.64;61.05
20015;BME280;61787;42.022;23.078;2023-07-20T04:20:35;96329.41;;;24.79;60.87
20015;BME280;61787;42.022;23.078;2023-07-20T04:21:40;96324.06;;;24.88;60.56
20015;BME280;61787;42.022;23.078;2023-07-20T04:22:42;96328.91;;;24.97;60.02
20015;BME280;61787;42.022;23.078;2023-07-20T04:23:44;96324.63;;;25.09;59.69
20015;BME280;61787;42.022;23.078;2023-07-20T04:24:45;96328.56;;;25.20;59.30
20015;BME280;61787;42.022;23.078;2023-07-20T04:25:47;96325.91;;;25.29;58.76
20015;BME280;61787;42.022;23.078;2023-07-20T04:26:49;96329.88;;;25.41;58.79
20015;BME280;61787;42.022;23.078;2023-07-20T04:27:51;96323.38;;;25.60;59.18
20015;BME280;61787;42.022;23.078;2023-07-20T04:28:53;96320.16;;;25.74;59.19
20015;BME280;61787;42.022;23.078;2023-07-20T04:29:55;96325.09;;;25.79;59.35
20015;BME280;61787;42.022;23.078;2023-07-20T04:31:09;96325.50;;;25.91;60.11
20015;BME280;61787;42.022;23.078;2023-07-20T04:32:11;96324.22;;;26.04;59.70
20015;BME280;61787;42.022;23.078;2023-07-20T04:33:13;96323.97;;;26.11;59.27
20015;BME280;61787;42.022;23.078;2023-07-20T04:34:15;96326.69;;;26.24;59.63
20015;BME280;61787;42.022;23.078;2023-07-20T04:35:45;96321.44;;;26.39;58.00
20015;BME280;61787;42.022;23.078;2023-07-20T04:36:48;96333.44;;;26.54;57.89
20015;BME280;61787;42.022;23.078;2023-07-20T04:37:49;96329.09;;;26.65;57.49
20015;BME280;61787;42.022;23.078;2023-07-20T04:38:51;96326.25;;;26.78;57.41
20015;BME280;61787;42.022;23.078;2023-07-20T04:39:53;96327.41;;;26.90;56.85
20015;BME280;61787;42.022;23.078;2023-07-20T04:40:54;96324.41;;;26.97;56.17
20015;BME280;61787;42.022;23.078;2023-07-20T04:41:57;96329.31;;;27.02;56.01
20015;BME280;61787;42.022;23.078;2023-07-20T04:42:58;96331.03;;;27.08;55.60
20015;BME280;61787;42.022;23.078;2023-07-20T04:44:00;96336.06;;;27.10;55.89
20015;BME280;61787;42.022;23.078;2023-07-20T04:45:02;96327.19;;;27.06;55.57
20015;BME280;61787;42.022;23.078;2023-07-20T04:46:03;96328.41;;;27.14;55.48
20015;BME280;61787;42.022;23.078;2023-07-20T04:47:05;96327.56;;;27.26;55.44
20015;BME280;61787;42.022;23.078;2023-07-20T04:48:09;96336.75;;;27.32;55.22
20015;BME280;61787;42.022;23.078;2023-07-20T04:49:14;96330.06;;;27.42;54.92
20015;BME280;61787;42.022;23.078;2023-07-20T04:50:16;96333.41;;;27.46;54.45
20015;BME280;61787;42.022;23.078;2023-07-20T04:51:18;96332.91;;;27.30;55.04
20015;BME280;61787;42.022;23.078;2023-07-20T04:52:22;96334.59;;;27.27;55.25
20015;BME280;61787;42.022;23.078;2023-07-20T04:53:37;96331.88;;;27.36;55.43
20015;BME280;61787;42.022;23.078;2023-07-20T04:54:39;96331.44;;;27.47;54.58
20015;BME280;61787;42.022;23.078;2023-07-20T04:55:48;96345.25;;;27.56;54.16
20015;BME280;61787;42.022;23.078;2023-07-20T04:56:53;96337.16;;;27.62;54.50
20015;BME280;61787;42.022;23.078;2023-07-20T04:57:54;96343.91;;;27.70;53.97
20015;BME280;61787;42.022;23.078;2023-07-20T04:58:56;96335.22;;;27.80;54.03
20015;BME280;61787;42.022;23.078;2023-07-20T04:59:58;96339.03;;;27.92;53.76
20015;BME280;61787;42.022;23.078;2023-07-20T05:01:00;96331.69;;;27.98;53.37
20015;BME280;61787;42.022;23.078;2023-07-20T05:02:01;96338.41;;;28.06;52.42
20015;BME280;61787;42.022;23.078;2023-07-20T05:03:03;96326.16;;;27.98;52.79
20015;BME280;61787;42.022;23.078;2023-07-20T05:04:07;96327.72;;;27.99;53.17
20015;BME280;61787;42.022;23.078;2023-07-20T05:05:09;96322.50;;;27.83;52.85
20015;BME280;61787;42.022;23.078;2023-07-20T05:06:11;96322.50;;;27.74;53.30
20015;BME280;61787;42.022;23.078;2023-07-20T05:07:13;96323.81;;;27.60;53.47
20015;BME280;61787;42.022;23.078;2023-07-20T05:08:15;96320.19;;;27.72;53.67
20015;BME280;61787;42.022;23.078;2023-07-20T05:09:17;96324.97;;;27.90;52.44
20015;BME280;61787;42.022;23.078;2023-07-20T05:10:19;96328.16;;;28.07;52.57
20015;BME280;61787;42.022;23.078;2023-07-20T05:11:24;96329.09;;;28.22;52.01
20015;BME280;61787;42.022;23.078;2023-07-20T05:12:25;96326.97;;;28.35;51.88
20015;BME280;61787;42.022;23.078;2023-07-20T05:13:27;96325.88;;;28.32;51.28
20015;BME280;61787;42.022;23.078;2023-07-20T05:14:29;96331.13;;;28.21;52.09
20015;BME280;61787;42.022;23.078;2023-07-20T05:15:33;96328.94;;;28.34;52.08
20015;BME280;61787;42.022;23.078;2023-07-20T05:16:35;96332.44;;;28.44;51.92
20015;BME280;61787;42.022;23.078;2023-07-20T05:17:37;96333.53;;;28.37;51.85
20015;BME280;61787;42.022;23.078;2023-07-20T05:18:39;96334.47;;;28.34;51.93
20015;BME280;61787;42.022;23.078;2023-07-20T05:19:40;96335.06;;;28.29;52.34
20015;BME280;61787;42.022;23.078;2023-07-20T05:20:49;96335.97;;;28.45;52.45
20015;BME280;61787;42.022;23.078;2023-07-20T05:21:51;96334.13;;;28.60;51.34
20015;BME280;61787;42.022;23.078;2023-07-20T05:22:52;96339.59;;;28.69;51.05
20015;BME280;61787;42.022;23.078;2023-07-20T05:23:54;96328.28;;;28.76;50.52
20015;BME280;61787;42.022;23.078;2023-07-20T05:24:56;96331.19;;;28.81;50.66
20015;BME280;61787;42.022;23.078;2023-07-20T05:25:58;96316.75;;;28.68;49.80
20015;BME280;61787;42.022;23.078;2023-07-20T05:27:00;96316.66;;;28.45;50.15
20015;BME280;61787;42.022;23.078;2023-07-20T05:28:02;96319.75;;;28.19;50.19
20015;BME280;61787;42.022;23.078;2023-07-20T05:29:04;96323.41;;;28.07;50.65
20015;BME280;61787;42.022;23.078;2023-07-20T05:30:06;96317.63;;;28.14;50.92
20015;BME280;61787;42.022;23.078;2023-07-20T05:31:11;96328.19;;;28.25;49.79
20015;BME280;61787;42.022;23.078;2023-07-20T05:32:15;96329.09;;;28.40;49.79
20015;BME280;61787;42.022;23.078;2023-07-20T05:33:18;96332.88;;;28.61;49.61
20015;BME280;61787;42.022;23.078;2023-07-20T05:34:20;96321.84;;;28.61;49.17
20015;BME280;61787;42.022;23.078;2023-07-20T05:35:22;96324.59;;;28.61;49.37
20015;BME280;61787;42.022;23.078;2023-07-20T05:36:24;96328.75;;;28.56;49.70